createdAt,value
2022-12-12T00:01:02.828Z,0.86
2022-12-12T00:03:31.053Z,0.65
2022-12-12T00:05:57.885Z,0.85
2022-12-12T00:08:24.445Z,0.17
2022-12-12T00:10:50.984Z,0.77
2022-12-12T00:13:17.521Z,0.61
2022-12-12T00:15:44.051Z,0.42
2022-12-12T00:18:10.575Z,0.63
2022-12-12T00:20:37.218Z,0.90
2022-12-12T00:23:04.926Z,0.84
2022-12-12T00:25:31.435Z,0.71
2022-12-12T00:27:58.007Z,0.30
2022-12-12T00:30:24.590Z,0.34
2022-12-12T00:32:51.154Z,0.69
2022-12-12T00:35:17.690Z,0.11
2022-12-12T00:37:44.226Z,0.53
2022-12-12T00:40:11.742Z,0.76
2022-12-12T00:42:38.254Z,0.06
2022-12-12T00:45:05.097Z,0.22
2022-12-12T00:47:31.563Z,0.18
2022-12-12T00:49:58.056Z,-0.08
2022-12-12T00:52:24.596Z,0.32
2022-12-12T00:54:51.104Z,0.04
2022-12-12T00:57:17.601Z,-0.12
2022-12-12T00:59:44.121Z,0.20
2022-12-12T01:02:10.873Z,0.17
2022-12-12T01:04:37.346Z,0.09
2022-12-12T01:07:05.973Z,-0.19
2022-12-12T01:09:32.744Z,-0.31
2022-12-12T01:11:59.253Z,-0.20
2022-12-12T01:14:25.784Z,-0.27
2022-12-12T01:16:52.312Z,-1.08
2022-12-12T01:19:18.859Z,-0.95
2022-12-12T01:21:45.578Z,-0.69
2022-12-12T01:24:12.092Z,-0.45
2022-12-12T01:26:38.589Z,-0.62
2022-12-12T01:29:05.049Z,-0.75
2022-12-12T01:31:31.579Z,-0.61
2022-12-12T01:33:58.173Z,-0.93
2022-12-12T01:36:24.800Z,-1.04
2022-12-12T01:38:54.325Z,-1.02
2022-12-12T01:41:21.944Z,-1.19
2022-12-12T01:43:48.594Z,-0.87
2022-12-12T01:46:33.612Z,-0.88
2022-12-12T01:49:09.141Z,-1.06
2022-12-12T01:51:39.510Z,-0.91
2022-12-12T01:54:11.350Z,-0.96
2022-12-12T01:56:41.475Z,-1.33
2022-12-12T01:59:12.580Z,-1.08
2022-12-12T02:01:40.289Z,-1.07
2022-12-12T02:04:08.837Z,-1.07
2022-12-12T02:06:35.698Z,-1.49
2022-12-12T02:09:06.984Z,-1.11
2022-12-12T02:11:37.878Z,-1.47
2022-12-12T02:14:04.482Z,-1.57
2022-12-12T02:16:49.656Z,-1.18
2022-12-12T02:19:53.023Z,-1.14
2022-12-12T02:22:38.477Z,-1.13
2022-12-12T02:25:42.726Z,-1.26
2022-12-12T02:28:24.556Z,-1.27
2022-12-12T02:31:19.689Z,-1.32
2022-12-12T02:34:13.714Z,-1.31
2022-12-12T02:36:57.747Z,-1.50
2022-12-12T02:40:01.420Z,-1.42
2022-12-12T02:42:43.176Z,-1.47
2022-12-12T02:45:20.448Z,-1.40
2022-12-12T02:47:53.524Z,-1.40
2022-12-12T02:50:23.538Z,-1.53
2022-12-12T02:52:50.470Z,-1.41
2022-12-12T02:55:18.526Z,-1.42
2022-12-12T02:57:45.418Z,-1.62
2022-12-12T03:00:18.019Z,-1.47
2022-12-12T03:03:23.591Z,-1.53
2022-12-12T03:06:42.407Z,-1.70
2022-12-12T03:09:27.903Z,-1.75
2022-12-12T03:12:28.607Z,-1.69
2022-12-12T03:15:02.421Z,-1.79
2022-12-12T03:17:43.711Z,-1.63
2022-12-12T03:20:43.406Z,-1.96
2022-12-12T03:23:14.929Z,-1.70
2022-12-12T03:25:55.019Z,-2.00
2022-12-12T03:28:31.854Z,-1.71
2022-12-12T03:31:03.190Z,-1.72
2022-12-12T03:33:53.028Z,-1.73
2022-12-12T03:36:28.347Z,-1.73
2022-12-12T03:39:01.557Z,-1.79
2022-12-12T03:41:37.030Z,-1.79
2022-12-12T03:44:10.390Z,-1.78
2022-12-12T03:46:52.146Z,-2.15
2022-12-12T03:49:34.626Z,-1.74
2022-12-12T03:52:19.904Z,-2.07
2022-12-12T03:54:52.137Z,-2.04
2022-12-12T03:57:28.814Z,-1.79
2022-12-12T04:00:02.057Z,-2.13
2022-12-12T04:02:34.904Z,-1.79
2022-12-12T04:05:06.272Z,-1.83
2022-12-12T04:07:40.255Z,-2.44
2022-12-12T04:10:25.954Z,-1.94
2022-12-12T04:13:14.579Z,-1.99
2022-12-12T04:15:59.783Z,-2.02
2022-12-12T04:18:26.251Z,-2.00
2022-12-12T04:21:26.718Z,-1.98
2022-12-12T04:24:11.683Z,-1.94
2022-12-12T04:26:42.509Z,-2.14
2022-12-12T04:29:27.592Z,-2.11
2022-12-12T04:32:18.454Z,-2.07
2022-12-12T04:35:00.134Z,-2.04
2022-12-12T04:37:42.067Z,-2.08
2022-12-12T04:40:23.487Z,-2.05
2022-12-12T04:42:59.250Z,-2.13
2022-12-12T04:45:31.497Z,-2.11
2022-12-12T04:48:00.078Z,-2.26
2022-12-12T04:50:30.400Z,-2.09
2022-12-12T04:53:00.877Z,-2.32
2022-12-12T04:55:32.868Z,-2.09
2022-12-12T04:57:59.518Z,-2.26
2022-12-12T05:00:33.627Z,-2.28
2022-12-12T05:03:24.469Z,-2.16
2022-12-12T05:05:54.865Z,-2.69
2022-12-12T05:08:27.751Z,-2.12
2022-12-12T05:10:56.560Z,-2.15
2022-12-12T05:13:31.597Z,-2.19
2022-12-12T05:16:01.426Z,-2.28
2022-12-12T05:18:28.110Z,-2.81
2022-12-12T05:20:55.168Z,-2.37
2022-12-12T05:23:21.904Z,-2.43
2022-12-12T05:25:48.421Z,-2.39
2022-12-12T05:28:14.932Z,-2.43
2022-12-12T05:30:41.391Z,-2.44
2022-12-12T05:33:07.923Z,-2.41
2022-12-12T05:35:34.420Z,-2.43
2022-12-12T05:38:04.547Z,-2.40
2022-12-12T05:40:32.171Z,-2.39
2022-12-12T05:42:58.730Z,-2.59
2022-12-12T05:45:25.209Z,-2.70
2022-12-12T05:47:51.704Z,-2.50
2022-12-12T05:50:18.210Z,-2.44
2022-12-12T05:52:45.155Z,-2.47
2022-12-12T05:55:11.846Z,-2.55
2022-12-12T05:57:38.672Z,-2.68
2022-12-12T06:00:05.690Z,-2.60
2022-12-12T06:02:32.277Z,-2.71
2022-12-12T06:04:58.730Z,-2.82
2022-12-12T06:07:25.280Z,-2.79
2022-12-12T06:09:51.760Z,-2.64
2022-12-12T06:12:18.337Z,-2.53
2022-12-12T06:14:44.829Z,-2.35
2022-12-12T06:17:11.296Z,-2.33
2022-12-12T06:19:37.763Z,-2.65
2022-12-12T06:22:04.579Z,-2.62
2022-12-12T06:24:31.086Z,-2.73
2022-12-12T06:26:57.572Z,-2.33
2022-12-12T06:29:24.275Z,-2.30
2022-12-12T06:31:50.730Z,-2.22
2022-12-12T06:34:17.183Z,-2.23
2022-12-12T06:36:43.834Z,-2.23
2022-12-12T06:39:10.433Z,-2.64
2022-12-12T06:41:37.078Z,-2.11
2022-12-12T06:44:04.431Z,-2.18
2022-12-12T06:46:31.021Z,-2.44
2022-12-12T06:48:58.535Z,-1.92
2022-12-12T06:51:29.058Z,-1.87
2022-12-12T06:53:56.536Z,-2.09
2022-12-12T06:56:25.522Z,-1.70
2022-12-12T06:58:53.818Z,-1.64
2022-12-12T07:01:23.590Z,-2.08
2022-12-12T07:03:51.838Z,-1.56
2022-12-12T07:06:20.644Z,-1.49
2022-12-12T07:08:48.069Z,-1.68
2022-12-12T07:11:20.731Z,-1.50
2022-12-12T07:13:47.543Z,-1.47
2022-12-12T07:16:14.740Z,-1.58
2022-12-12T07:18:42.056Z,-1.46
2022-12-12T07:21:13.413Z,-1.49
2022-12-12T07:23:40.024Z,-1.44
2022-12-12T07:26:13.543Z,-1.48
2022-12-12T07:28:40.369Z,-1.77
2022-12-12T07:31:08.744Z,-1.46
2022-12-12T07:33:43.664Z,-1.61
2022-12-12T07:36:11.812Z,-1.59
2022-12-12T07:38:38.476Z,-1.89
2022-12-12T07:41:08.530Z,-1.59
2022-12-12T07:43:42.838Z,-1.71
2022-12-12T07:46:12.026Z,-1.78
2022-12-12T07:48:38.531Z,-2.00
2022-12-12T07:51:05.213Z,-2.16
2022-12-12T07:53:32.123Z,-2.31
2022-12-12T07:55:58.744Z,-2.34
2022-12-12T07:58:25.489Z,-2.47
2022-12-12T08:00:52.237Z,-2.40
2022-12-12T08:03:18.797Z,-2.16
2022-12-12T08:05:45.391Z,-2.09
2022-12-12T08:08:12.086Z,-2.28
2022-12-12T08:10:40.350Z,-2.65
2022-12-12T08:13:07.431Z,-2.10
2022-12-12T08:15:34.315Z,-2.40
2022-12-12T08:18:00.902Z,-2.62
2022-12-12T08:20:27.409Z,-1.97
2022-12-12T08:22:54.156Z,-1.76
2022-12-12T08:25:20.603Z,-1.61
2022-12-12T08:27:47.154Z,-1.84
2022-12-12T08:30:13.829Z,-1.30
2022-12-12T08:32:40.357Z,-1.09
2022-12-12T08:35:07.340Z,-0.98
2022-12-12T08:37:34.266Z,-1.17
2022-12-12T08:40:01.091Z,-0.65
2022-12-12T08:42:27.585Z,-0.68
2022-12-12T08:44:54.074Z,0.37
2022-12-12T08:47:20.521Z,1.16
2022-12-12T08:49:46.983Z,2.21
2022-12-12T08:52:13.469Z,3.25
2022-12-12T08:54:39.979Z,3.81
2022-12-12T08:57:06.446Z,4.50
2022-12-12T08:59:33.037Z,4.43
2022-12-12T09:02:00.916Z,4.74
2022-12-12T09:04:27.620Z,4.29
2022-12-12T09:06:55.180Z,4.52
2022-12-12T09:09:21.654Z,4.65
2022-12-12T09:11:48.072Z,4.07
2022-12-12T09:14:14.533Z,4.12
2022-12-12T09:16:41.219Z,3.66
2022-12-12T09:19:09.681Z,3.88
2022-12-12T09:21:36.269Z,3.74
2022-12-12T09:24:02.980Z,4.70
2022-12-12T09:26:29.600Z,4.07
2022-12-12T09:28:56.086Z,4.00
2022-12-12T09:31:22.689Z,4.01
2022-12-12T09:33:49.373Z,4.32
2022-12-12T09:36:16.597Z,5.04
2022-12-12T09:38:43.745Z,5.60
2022-12-12T09:41:12.726Z,5.82
2022-12-12T09:44:03.591Z,5.43
2022-12-12T09:46:34.859Z,5.38
2022-12-12T09:49:27.852Z,4.86
2022-12-12T09:51:56.506Z,4.35
2022-12-12T09:54:27.478Z,4.68
2022-12-12T09:57:24.602Z,5.45
2022-12-12T10:00:02.022Z,6.11
2022-12-12T10:02:36.607Z,6.11
2022-12-12T10:05:27.142Z,5.68
2022-12-12T10:07:53.799Z,5.57
2022-12-12T10:10:39.843Z,4.88
2022-12-12T10:13:15.515Z,5.16
2022-12-12T10:15:46.794Z,5.49
2022-12-12T10:18:23.491Z,6.82
2022-12-12T10:20:53.976Z,7.87
2022-12-12T10:23:49.012Z,9.13
2022-12-12T10:26:18.039Z,10.23
2022-12-12T10:28:45.258Z,9.72
2022-12-12T10:31:44.382Z,10.09
2022-12-12T10:34:32.266Z,8.77
2022-12-12T10:37:14.305Z,7.10
2022-12-12T10:39:56.405Z,6.36
2022-12-12T10:42:44.195Z,5.54
2022-12-12T10:45:28.911Z,4.62
2022-12-12T10:47:55.423Z,4.00
2022-12-12T10:50:43.207Z,3.89
2022-12-12T10:53:11.945Z,3.19
2022-12-12T10:55:58.649Z,3.14
2022-12-12T10:58:39.330Z,3.21
2022-12-12T11:01:32.882Z,3.70
2022-12-12T11:04:05.403Z,4.98
2022-12-12T11:06:36.897Z,5.50
2022-12-12T11:09:09.441Z,6.44
2022-12-12T11:11:36.164Z,6.64
2022-12-12T11:14:20.049Z,8.56
2022-12-12T11:16:46.582Z,9.24
2022-12-12T11:19:20.674Z,9.54
2022-12-12T11:21:48.743Z,9.28
2022-12-12T11:24:27.411Z,9.95
2022-12-12T11:27:04.624Z,10.54
2022-12-12T11:29:40.145Z,9.59
2022-12-12T11:32:19.615Z,8.30
2022-12-12T11:34:50.531Z,7.45
2022-12-12T11:37:27.002Z,6.20
2022-12-12T11:39:58.879Z,6.47
2022-12-12T11:42:29.105Z,6.33
2022-12-12T11:45:09.871Z,6.57
2022-12-12T11:47:45.871Z,6.43
2022-12-12T11:50:22.975Z,6.49
2022-12-12T11:52:51.291Z,6.89
2022-12-12T11:55:24.756Z,6.68
2022-12-12T11:58:17.534Z,6.65
2022-12-12T12:00:56.581Z,5.84
2022-12-12T12:04:05.749Z,5.14
2022-12-12T12:06:51.450Z,4.68
2022-12-12T12:09:28.660Z,4.02
2022-12-12T12:12:12.456Z,3.48
2022-12-12T12:14:45.095Z,3.20
2022-12-12T12:17:22.491Z,2.61
2022-12-12T12:20:02.784Z,2.92
2022-12-12T12:22:50.081Z,2.74
2022-12-12T12:25:55.645Z,2.71
2022-12-12T12:28:31.202Z,2.74
2022-12-12T12:31:11.140Z,2.89
2022-12-12T12:34:11.789Z,2.66
2022-12-12T12:37:07.946Z,2.58
2022-12-12T12:39:59.915Z,2.41
2022-12-12T12:43:02.494Z,2.32
2022-12-12T12:45:45.560Z,1.97
2022-12-12T12:48:20.351Z,1.72
2022-12-12T12:50:55.551Z,2.08
2022-12-12T12:53:31.939Z,2.48
2022-12-12T12:56:03.963Z,2.57
2022-12-12T12:58:44.219Z,2.25
2022-12-12T13:01:23.736Z,2.48
2022-12-12T13:04:14.717Z,2.41
2022-12-12T13:06:41.358Z,2.36
2022-12-12T13:09:42.093Z,2.20
2022-12-12T13:12:27.484Z,2.22
2022-12-12T13:15:00.869Z,2.10
2022-12-12T13:17:55.415Z,2.15
2022-12-12T13:20:25.467Z,2.40
2022-12-12T13:22:56.394Z,2.52
2022-12-12T13:25:32.156Z,2.92
2022-12-12T13:28:02.157Z,3.45
2022-12-12T13:31:00.427Z,4.22
2022-12-12T13:33:45.918Z,3.89
2022-12-12T13:36:16.968Z,3.26
2022-12-12T13:38:50.947Z,3.20
2022-12-12T13:41:18.026Z,2.89
2022-12-12T13:43:50.131Z,2.29
2022-12-12T13:46:29.097Z,2.65
2022-12-12T13:49:07.815Z,2.28
2022-12-12T13:51:40.944Z,2.44
2022-12-12T13:54:12.837Z,2.46
2022-12-12T13:56:45.666Z,2.73
2022-12-12T13:59:27.203Z,2.57
2022-12-12T14:02:01.610Z,2.58
2022-12-12T14:04:34.821Z,2.36
2022-12-12T14:07:14.431Z,2.03
2022-12-12T14:09:48.973Z,2.29
2022-12-12T14:12:31.062Z,1.68
2022-12-12T14:15:01.762Z,2.01
2022-12-12T14:17:32.463Z,2.00
2022-12-12T14:20:04.588Z,2.09
2022-12-12T14:22:37.582Z,2.39
2022-12-12T14:25:17.600Z,2.81
2022-12-12T14:27:50.253Z,2.52
2022-12-12T14:30:39.129Z,1.90
2022-12-12T14:33:17.824Z,1.80
2022-12-12T14:36:02.492Z,1.69
2022-12-12T14:38:55.094Z,1.19
2022-12-12T14:41:32.075Z,1.16
2022-12-12T14:44:37.560Z,1.02
2022-12-12T14:46:48.757Z,0.43
2022-12-12T14:49:17.084Z,0.69
2022-12-12T14:51:47.471Z,0.58
2022-12-12T14:54:17.602Z,0.32
2022-12-12T14:56:52.690Z,0.22
2022-12-12T14:59:25.949Z,0.16
2022-12-12T15:02:06.768Z,-0.30
2022-12-12T15:04:38.968Z,-0.37
2022-12-12T15:07:22.384Z,-0.17
2022-12-12T15:09:49.765Z,-0.21
2022-12-12T15:12:19.736Z,-0.22
2022-12-12T15:14:49.426Z,-0.76
2022-12-12T15:17:30.599Z,-0.46
2022-12-12T15:20:07.205Z,-0.49
2022-12-12T15:22:36.560Z,-0.58
2022-12-12T15:25:46.729Z,-0.63
2022-12-12T15:28:19.511Z,-0.81
2022-12-12T15:30:50.262Z,-1.09
2022-12-12T15:33:20.960Z,-0.90
2022-12-12T15:36:07.549Z,-0.81
2022-12-12T15:38:34.474Z,-0.97
2022-12-12T15:41:09.567Z,-0.94
2022-12-12T15:43:39.067Z,-0.96
2022-12-12T15:46:14.934Z,-1.02
2022-12-12T15:48:46.656Z,-1.00
2022-12-12T15:51:21.046Z,-1.12
2022-12-12T15:53:52.687Z,-1.05
2022-12-12T15:56:19.169Z,-1.05
2022-12-12T15:58:48.529Z,-1.44
2022-12-12T16:01:20.839Z,-1.18
2022-12-12T16:04:09.330Z,-1.68
2022-12-12T16:06:47.186Z,-1.29
2022-12-12T16:09:17.994Z,-1.40
2022-12-12T16:11:50.647Z,-1.36
2022-12-12T16:14:40.783Z,-1.34
2022-12-12T16:17:13.914Z,-1.64
2022-12-12T16:19:55.965Z,-1.29
2022-12-12T16:22:28.422Z,-1.33
2022-12-12T16:25:10.907Z,-1.47
2022-12-12T16:27:38.090Z,-1.61
2022-12-12T16:30:05.776Z,-1.51
2022-12-12T16:32:32.380Z,-1.84
2022-12-12T16:34:59.116Z,-2.15
2022-12-12T16:37:29.116Z,-1.92
2022-12-12T16:39:55.631Z,-2.06
2022-12-12T16:42:24.202Z,-1.79
2022-12-12T16:44:55.783Z,-2.24
2022-12-12T16:47:24.965Z,-1.92
2022-12-12T16:49:52.047Z,-1.63
2022-12-12T16:52:20.446Z,-1.68
2022-12-12T16:54:53.208Z,-1.70
2022-12-12T16:57:21.910Z,-1.74
2022-12-12T16:59:48.450Z,-1.93
2022-12-12T17:02:21.446Z,-1.66
2022-12-12T17:04:50.226Z,-1.65
2022-12-12T17:07:16.936Z,-1.97
2022-12-12T17:09:43.749Z,-1.84
2022-12-12T17:12:13.371Z,-2.36
2022-12-12T17:14:40.347Z,-2.33
2022-12-12T17:17:27.078Z,-2.97
2022-12-12T17:19:53.698Z,-2.81
2022-12-12T17:22:20.237Z,-2.80
2022-12-12T17:24:46.893Z,-2.01
2022-12-12T17:27:13.462Z,-2.02
2022-12-12T17:29:39.938Z,-2.11
2022-12-12T17:32:06.543Z,-2.45
2022-12-12T17:34:33.154Z,-2.06
2022-12-12T17:36:59.786Z,-2.13
2022-12-12T17:39:37.458Z,-2.12
2022-12-12T17:42:04.239Z,-1.97
2022-12-12T17:44:31.049Z,-2.01
2022-12-12T17:46:57.584Z,-2.61
2022-12-12T17:49:24.072Z,-2.14
2022-12-12T17:51:50.533Z,-2.45
2022-12-12T17:54:17.092Z,-2.20
2022-12-12T17:56:43.526Z,-2.66
2022-12-12T17:59:10.532Z,-2.75
2022-12-12T18:01:37.511Z,-2.74
2022-12-12T18:04:06.958Z,-2.37
2022-12-12T18:06:34.728Z,-2.32
2022-12-12T18:09:01.759Z,-2.39
2022-12-12T18:11:31.570Z,-2.71
2022-12-12T18:14:00.780Z,-2.91
2022-12-12T18:16:30.956Z,-2.46
2022-12-12T18:18:59.339Z,-2.39
2022-12-12T18:21:59.134Z,-2.61
2022-12-12T18:24:16.157Z,-2.44
2022-12-12T18:26:44.366Z,-2.68
2022-12-12T18:29:13.187Z,-2.40
2022-12-12T18:31:39.806Z,-2.77
2022-12-12T18:34:06.589Z,-2.89
2022-12-12T18:36:33.267Z,-2.59
2022-12-12T18:39:03.025Z,-2.41
2022-12-12T18:41:31.633Z,-2.77
2022-12-12T18:43:58.830Z,-2.69
2022-12-12T18:46:27.287Z,-2.52
2022-12-12T18:48:54.141Z,-2.82
2022-12-12T18:51:25.443Z,-2.50
2022-12-12T18:53:54.065Z,-2.59
2022-12-12T18:56:24.274Z,-2.70
2022-12-12T18:58:53.259Z,-2.88
2022-12-12T19:01:22.458Z,-2.70
2022-12-12T19:03:52.000Z,-2.69
2022-12-12T19:06:24.994Z,-2.73
2022-12-12T19:08:53.984Z,-2.85
2022-12-12T19:11:20.630Z,-3.32
2022-12-12T19:13:47.281Z,-2.84
2022-12-12T19:16:17.315Z,-2.87
2022-12-12T19:18:44.996Z,-2.91
2022-12-12T19:21:14.682Z,-3.07
2022-12-12T19:23:42.438Z,-2.97
2022-12-12T19:26:13.054Z,-3.59
2022-12-12T19:28:39.963Z,-2.94
2022-12-12T19:31:09.624Z,-2.96
2022-12-12T19:33:36.516Z,-2.99
2022-12-12T19:36:10.950Z,-3.03
2022-12-12T19:38:37.596Z,-3.02
2022-12-12T19:41:08.886Z,-3.07
2022-12-12T19:43:35.641Z,-3.36
2022-12-12T19:46:11.233Z,-3.36
2022-12-12T19:48:38.328Z,-2.99
2022-12-12T19:51:17.355Z,-3.16
2022-12-12T19:53:46.430Z,-3.10
2022-12-12T19:56:14.999Z,-3.11
2022-12-12T19:58:42.637Z,-3.10
2022-12-12T20:01:11.932Z,-3.42
2022-12-12T20:03:38.454Z,-3.23
2022-12-12T20:06:08.367Z,-3.38
2022-12-12T20:08:36.396Z,-3.26
2022-12-12T20:11:06.678Z,-3.28
2022-12-12T20:13:33.521Z,-3.34
2022-12-12T20:16:10.725Z,-3.38
2022-12-12T20:18:37.885Z,-3.49
2022-12-12T20:21:04.927Z,-3.78
2022-12-12T20:23:33.931Z,-3.45
2022-12-12T20:26:10.890Z,-3.52
2022-12-12T20:28:37.606Z,-3.48
2022-12-12T20:31:13.708Z,-3.43
2022-12-12T20:33:40.283Z,-3.78
2022-12-12T20:36:10.155Z,-3.49
2022-12-12T20:38:37.964Z,-3.51
2022-12-12T20:41:13.086Z,-3.57
2022-12-12T20:43:40.365Z,-3.60
2022-12-12T20:46:15.901Z,-4.01
2022-12-12T20:48:43.047Z,-3.68
2022-12-12T20:51:45.600Z,-3.62
2022-12-12T20:54:00.661Z,-3.93
2022-12-12T20:56:27.884Z,-3.69
2022-12-12T20:58:56.274Z,-3.57
2022-12-12T21:01:25.239Z,-3.86
2022-12-12T21:03:51.929Z,-3.59
2022-12-12T21:06:28.658Z,-3.76
2022-12-12T21:08:55.460Z,-4.04
2022-12-12T21:11:25.269Z,-3.69
2022-12-12T21:13:55.960Z,-3.77
2022-12-12T21:16:25.638Z,-3.75
2022-12-12T21:18:57.770Z,-3.69
2022-12-12T21:21:25.234Z,-3.92
2022-12-12T21:23:52.989Z,-3.97
2022-12-12T21:26:28.235Z,-3.91
2022-12-12T21:28:56.605Z,-3.94
2022-12-12T21:31:27.595Z,-4.02
2022-12-12T21:33:54.484Z,-3.95
2022-12-12T21:36:23.530Z,-4.04
2022-12-12T21:38:51.914Z,-3.98
2022-12-12T21:41:21.073Z,-4.00
2022-12-12T21:43:48.337Z,-4.02
2022-12-12T21:46:23.989Z,-4.39
2022-12-12T21:49:09.792Z,-4.15
2022-12-12T21:51:36.794Z,-3.98
2022-12-12T21:54:04.528Z,-3.92
2022-12-12T21:56:31.255Z,-3.89
2022-12-12T21:58:58.979Z,-4.21
2022-12-12T22:01:25.993Z,-3.94
2022-12-12T22:03:53.779Z,-4.02
2022-12-12T22:06:26.565Z,-4.03
2022-12-12T22:08:57.007Z,-3.90
2022-12-12T22:11:40.906Z,-3.92
2022-12-12T22:14:10.947Z,-4.02
2022-12-12T22:16:37.915Z,-3.84
2022-12-12T22:19:08.817Z,-4.04
2022-12-12T22:21:36.721Z,-3.96
2022-12-12T22:24:04.190Z,-3.89
2022-12-12T22:26:37.203Z,-3.85
2022-12-12T22:29:06.495Z,-3.88
2022-12-12T22:31:35.863Z,-3.82
2022-12-12T22:34:04.644Z,-3.86
2022-12-12T22:36:34.192Z,-3.87
2022-12-12T22:39:01.630Z,-4.00
2022-12-12T22:41:29.657Z,-3.86
2022-12-12T22:43:58.889Z,-4.12
2022-12-12T22:46:26.900Z,-3.99
2022-12-12T22:48:55.451Z,-4.48
2022-12-12T22:51:24.893Z,-4.15
2022-12-12T22:53:51.811Z,-4.33
2022-12-12T22:56:18.315Z,-4.18
2022-12-12T22:58:44.808Z,-4.25
2022-12-12T23:01:14.184Z,-3.87
2022-12-12T23:03:41.516Z,-3.82
2022-12-12T23:06:13.347Z,-4.20
2022-12-12T23:08:40.993Z,-3.79
2022-12-12T23:11:17.359Z,-3.80
2022-12-12T23:13:45.165Z,-3.68
2022-12-12T23:16:20.808Z,-3.93
2022-12-12T23:18:48.494Z,-3.55
2022-12-12T23:21:17.708Z,-3.56
2022-12-12T23:23:45.308Z,-3.70
2022-12-12T23:26:17.341Z,-3.42
2022-12-12T23:28:45.119Z,-3.41
2022-12-12T23:31:25.583Z,-3.71
2022-12-12T23:33:53.755Z,-3.35
2022-12-12T23:36:20.886Z,-3.45
2022-12-12T23:38:47.347Z,-3.80
2022-12-12T23:41:15.812Z,-3.43
2022-12-12T23:43:42.611Z,-3.71
2022-12-12T23:46:28.689Z,-3.50
2022-12-12T23:49:01.485Z,-3.54
2022-12-12T23:51:30.945Z,-3.61
2022-12-12T23:53:59.121Z,-3.63
2022-12-12T23:56:26.774Z,-3.63
2022-12-12T23:58:54.662Z,-3.79
